createdAt,value
2023-05-10T00:02:22.903Z,98176.88
2023-05-10T00:04:49.806Z,98173.69
2023-05-10T00:07:19.740Z,98168.25
2023-05-10T00:09:46.709Z,98173.69
2023-05-10T00:12:13.637Z,98177.56
2023-05-10T00:14:40.772Z,98174.50
2023-05-10T00:17:07.561Z,98173.94
2023-05-10T00:19:34.390Z,98174.38
2023-05-10T00:22:01.325Z,98173.94
2023-05-10T00:24:28.140Z,98173.00
2023-05-10T00:26:55.212Z,98177.69
2023-05-10T00:29:22.023Z,98172.56
2023-05-10T00:31:48.775Z,98173.22
2023-05-10T00:34:21.777Z,98174.38
2023-05-10T00:36:48.761Z,98170.16
2023-05-10T00:39:16.839Z,98168.69
2023-05-10T00:41:44.062Z,98169.28
2023-05-10T00:44:11.478Z,98175.03
2023-05-10T00:46:38.478Z,98173.91
2023-05-10T00:49:05.549Z,98181.31
2023-05-10T00:51:32.614Z,98181.19
2023-05-10T00:53:59.877Z,98176.84
2023-05-10T00:56:27.833Z,98171.84
2023-05-10T00:58:54.857Z,98175.94
2023-05-10T01:01:21.968Z,98178.00
2023-05-10T01:03:49.422Z,98169.34
2023-05-10T01:06:16.308Z,98168.22
2023-05-10T01:08:44.158Z,98166.16
2023-05-10T01:11:11.034Z,98174.13
2023-05-10T01:13:41.854Z,98169.72
2023-05-10T01:16:08.908Z,98175.72
2023-05-10T01:18:42.535Z,98178.00
2023-05-10T01:21:19.642Z,98178.44
2023-05-10T01:24:25.419Z,98167.75
2023-05-10T01:27:23.387Z,98174.25
2023-05-10T01:33:00.541Z,98176.63
2023-05-10T01:36:07.911Z,98178.00
2023-05-10T01:38:47.196Z,98180.03
2023-05-10T01:41:33.781Z,98176.19
2023-05-10T01:44:21.702Z,98183.44
2023-05-10T01:47:02.344Z,98174.47
2023-05-10T01:49:37.415Z,98178.34
2023-05-10T01:52:14.885Z,98182.00
2023-05-10T01:54:56.644Z,98178.91
2023-05-10T01:57:32.872Z,98171.63
2023-05-10T02:00:04.294Z,98179.50
2023-05-10T02:02:38.691Z,98191.19
2023-05-10T02:05:08.077Z,98187.22
2023-05-10T02:07:38.428Z,98192.53
2023-05-10T02:10:11.251Z,98194.13
2023-05-10T02:12:45.838Z,98186.75
2023-05-10T02:15:19.456Z,98194.13
2023-05-10T02:17:48.512Z,98183.69
2023-05-10T02:20:20.231Z,98190.50
2023-05-10T02:22:51.553Z,98190.16
2023-05-10T02:25:22.042Z,98197.66
2023-05-10T02:27:50.473Z,98209.25
2023-05-10T02:30:19.616Z,98210.84
2023-05-10T02:32:48.125Z,98215.06
2023-05-10T02:35:16.183Z,98214.28
2023-05-10T02:37:46.576Z,98207.69
2023-05-10T02:40:17.140Z,98209.16
2023-05-10T02:42:48.361Z,98211.09
2023-05-10T02:45:25.785Z,98213.69
2023-05-10T02:47:53.101Z,98210.50
2023-05-10T02:50:21.056Z,98214.81
2023-05-10T02:52:55.283Z,98213.22
2023-05-10T02:55:33.963Z,98220.41
2023-05-10T02:58:03.569Z,98214.59
2023-05-10T03:00:31.053Z,98220.41
2023-05-10T03:02:58.056Z,98214.94
2023-05-10T03:05:25.068Z,98218.81
2023-05-10T03:07:52.909Z,98214.59
2023-05-10T03:10:22.358Z,98223.47
2023-05-10T03:13:12.285Z,98227.78
2023-05-10T03:16:16.227Z,98232.09
2023-05-10T03:18:57.384Z,98227.78
2023-05-10T03:21:30.871Z,98234.50
2023-05-10T03:24:08.864Z,98238.44
2023-05-10T03:26:38.167Z,98245.50
2023-05-10T03:29:07.174Z,98234.78
2023-05-10T03:31:34.295Z,98244.47
2023-05-10T03:34:01.099Z,98249.69
2023-05-10T03:36:27.876Z,98250.16
2023-05-10T03:38:54.585Z,98258.13
2023-05-10T03:41:21.719Z,98247.97
2023-05-10T03:43:54.492Z,98252.28
2023-05-10T03:46:21.554Z,98256.59
2023-05-10T03:48:48.383Z,98260.59
2023-05-10T03:51:15.284Z,98261.59
2023-05-10T03:53:42.127Z,98272.28
2023-05-10T03:56:09.060Z,98261.38
2023-05-10T03:58:36.057Z,98260.03
2023-05-10T04:01:03.390Z,98262.44
2023-05-10T04:03:30.369Z,98266.41
2023-05-10T04:06:02.326Z,98259.50
2023-05-10T04:08:29.940Z,98252.78
2023-05-10T04:11:09.852Z,98253.66
2023-05-10T04:13:37.485Z,98255.25
2023-05-10T04:16:05.202Z,98259.94
2023-05-10T04:18:32.730Z,98264.72
2023-05-10T04:20:59.594Z,98264.03
2023-05-10T04:23:26.754Z,98258.91
2023-05-10T04:25:53.550Z,98262.78
2023-05-10T04:28:20.595Z,98271.63
2023-05-10T04:30:47.734Z,98261.06
2023-05-10T04:33:15.297Z,98271.50
2023-05-10T04:35:42.264Z,98266.06
2023-05-10T04:38:09.184Z,98268.44
2023-05-10T04:40:36.676Z,98272.28
2023-05-10T04:43:03.438Z,98279.47
2023-05-10T04:45:30.210Z,98280.16
2023-05-10T04:47:57.045Z,98284.59
2023-05-10T04:50:23.858Z,98274.59
2023-05-10T04:52:50.600Z,98279.59
2023-05-10T04:55:17.511Z,98284.13
2023-05-10T04:57:44.314Z,98288.19
2023-05-10T05:00:12.347Z,98284.00
2023-05-10T05:02:40.550Z,98285.84
2023-05-10T05:05:07.969Z,98292.81
2023-05-10T05:07:34.720Z,98284.34
2023-05-10T05:10:01.795Z,98285.13
2023-05-10T05:12:31.423Z,98281.00
2023-05-10T05:14:59.650Z,98286.72
2023-05-10T05:17:26.657Z,98288.53
2023-05-10T05:19:56.683Z,98292.41
2023-05-10T05:22:28.595Z,98296.41
2023-05-10T05:24:56.408Z,98301.97
2023-05-10T05:27:25.215Z,98296.88
2023-05-10T05:29:53.589Z,98303.47
2023-05-10T05:32:20.674Z,98301.72
2023-05-10T05:34:47.965Z,98295.97
2023-05-10T05:37:20.905Z,98302.47
2023-05-10T05:39:48.101Z,98310.66
2023-05-10T05:42:17.368Z,98308.06
2023-05-10T05:44:44.382Z,98305.03
2023-05-10T05:47:11.717Z,98308.22
2023-05-10T05:49:38.542Z,98301.16
2023-05-10T05:52:05.927Z,98311.34
2023-05-10T05:54:33.328Z,98307.09
2023-05-10T05:57:01.780Z,98308.09
2023-05-10T05:59:30.875Z,98317.44
2023-05-10T06:01:57.728Z,98311.28
2023-05-10T06:04:24.592Z,98312.66
2023-05-10T06:06:51.468Z,98313.63
2023-05-10T06:09:18.251Z,98314.53
2023-05-10T06:11:46.877Z,98311.13
2023-05-10T06:14:13.704Z,98316.59
2023-05-10T06:16:40.625Z,98315.44
2023-05-10T06:19:07.664Z,98316.59
2023-05-10T06:21:34.431Z,98315.44
2023-05-10T06:24:01.180Z,98321.63
2023-05-10T06:26:28.042Z,98326.06
2023-05-10T06:28:54.903Z,98334.16
2023-05-10T06:31:22.159Z,98339.03
2023-05-10T06:33:48.970Z,98335.63
2023-05-10T06:36:15.789Z,98334.84
2023-05-10T06:38:42.548Z,98340.53
2023-05-10T06:41:09.457Z,98338.28
2023-05-10T06:43:36.328Z,98343.50
2023-05-10T06:46:03.248Z,98335.78
2023-05-10T06:48:30.337Z,98341.34
2023-05-10T06:50:57.092Z,98344.75
2023-05-10T06:53:23.860Z,98346.94
2023-05-10T06:55:51.188Z,98349.19
2023-05-10T06:58:17.932Z,98353.28
2023-05-10T07:00:46.207Z,98352.84
2023-05-10T07:03:13.324Z,98359.34
2023-05-10T07:05:40.263Z,98350.78
2023-05-10T07:08:07.092Z,98360.03
2023-05-10T07:10:34.115Z,98352.03
2023-05-10T07:13:02.394Z,98351.69
2023-05-10T07:15:29.725Z,98363.31
2023-05-10T07:17:56.596Z,98370.59
2023-05-10T07:20:23.586Z,98363.31
2023-05-10T07:22:50.430Z,98368.53
2023-05-10T07:25:17.453Z,98370.13
2023-05-10T07:27:44.533Z,98372.53
2023-05-10T07:30:12.250Z,98368.78
2023-05-10T07:32:40.268Z,98373.22
2023-05-10T07:35:07.853Z,98377.19
2023-05-10T07:37:34.684Z,98371.63
2023-05-10T07:40:01.492Z,98379.94
2023-05-10T07:42:28.422Z,98369.56
2023-05-10T07:44:55.218Z,98358.06
2023-05-10T07:47:22.018Z,98367.16
2023-05-10T07:49:48.817Z,98360.78
2023-05-10T07:52:16.314Z,98373.66
2023-05-10T07:54:43.038Z,98383.25
2023-05-10T07:57:09.782Z,98381.19
2023-05-10T07:59:36.565Z,98398.16
2023-05-10T08:02:03.307Z,98394.50
2023-05-10T08:04:30.323Z,98405.19
2023-05-10T08:06:57.133Z,98399.50
2023-05-10T08:09:24.874Z,98393.56
2023-05-10T08:11:51.947Z,98403.97
2023-05-10T08:14:19.084Z,98398.81
2023-05-10T08:16:46.078Z,98401.00
2023-05-10T08:19:12.882Z,98410.22
2023-05-10T08:21:41.419Z,98402.16
2023-05-10T08:24:08.359Z,98391.44
2023-05-10T08:26:35.221Z,98397.44
2023-05-10T08:29:02.031Z,98401.44
2023-05-10T08:31:28.942Z,98412.38
2023-05-10T08:33:55.777Z,98410.34
2023-05-10T08:36:25.022Z,98411.00
2023-05-10T08:38:53.098Z,98410.88
2023-05-10T08:41:22.286Z,98415.66
2023-05-10T08:43:51.314Z,98403.97
2023-05-10T08:46:21.713Z,98413.38
2023-05-10T08:48:51.542Z,98410.19
2023-05-10T08:51:27.696Z,98406.78
2023-05-10T08:53:55.366Z,98413.88
2023-05-10T08:56:22.798Z,98426.28
2023-05-10T08:58:50.660Z,98428.22
2023-05-10T09:01:22.229Z,98426.31
2023-05-10T09:03:49.803Z,98438.00
2023-05-10T09:06:17.140Z,98432.84
2023-05-10T09:08:45.684Z,98439.03
2023-05-10T09:11:14.209Z,98445.94
2023-05-10T09:13:41.357Z,98440.13
2023-05-10T09:16:20.398Z,98445.88
2023-05-10T09:18:50.410Z,98448.38
2023-05-10T09:21:17.806Z,98445.75
2023-05-10T09:23:48.802Z,98449.22
2023-05-10T09:26:16.003Z,98448.25
2023-05-10T09:28:58.157Z,98452.13
2023-05-10T09:31:26.758Z,98457.38
2023-05-10T09:33:55.244Z,98460.13
2023-05-10T09:36:22.302Z,98465.34
2023-05-10T09:38:53.572Z,98465.34
2023-05-10T09:41:23.219Z,98458.88
2023-05-10T09:43:51.027Z,98462.16
2023-05-10T09:46:17.864Z,98464.44
2023-05-10T09:48:49.243Z,98471.28
2023-05-10T09:51:25.487Z,98477.19
2023-05-10T09:54:11.900Z,98482.19
2023-05-10T09:56:41.382Z,98480.59
2023-05-10T09:59:13.241Z,98489.84
2023-05-10T10:01:41.564Z,98493.25
2023-05-10T10:04:10.975Z,98504.22
2023-05-10T10:06:40.162Z,98504.66
2023-05-10T10:09:10.266Z,98494.34
2023-05-10T10:11:39.529Z,98497.50
2023-05-10T10:14:06.896Z,98497.16
2023-05-10T10:16:34.155Z,98492.47
2023-05-10T10:19:02.050Z,98492.38
2023-05-10T10:21:29.222Z,98498.53
2023-05-10T10:23:55.968Z,98491.69
2023-05-10T10:26:23.837Z,98494.78
2023-05-10T10:29:19.596Z,98491.09
2023-05-10T10:32:03.645Z,98492.47
2023-05-10T10:34:32.270Z,98484.66
2023-05-10T10:37:05.692Z,98490.56
2023-05-10T10:39:33.908Z,98493.16
2023-05-10T10:42:00.932Z,98491.63
2023-05-10T10:44:40.502Z,98480.94
2023-05-10T10:47:14.047Z,98477.34
2023-05-10T10:49:52.787Z,98467.16
2023-05-10T10:52:43.159Z,98466.84
2023-05-10T10:55:13.588Z,98471.06
2023-05-10T10:57:47.199Z,98472.44
2023-05-10T11:00:31.610Z,98471.91
2023-05-10T11:03:08.655Z,98472.88
2023-05-10T11:05:41.983Z,98466.59
2023-05-10T11:08:30.090Z,98476.75
2023-05-10T11:11:00.016Z,98480.50
2023-05-10T11:13:32.802Z,98482.47
2023-05-10T11:16:11.434Z,98484.75
2023-05-10T11:18:38.868Z,98499.16
2023-05-10T11:21:10.257Z,98485.47
2023-05-10T11:23:46.307Z,98495.72
2023-05-10T11:26:14.084Z,98490.25
2023-05-10T11:28:46.582Z,98491.13
2023-05-10T11:31:20.828Z,98506.75
2023-05-10T11:33:59.802Z,98500.44
2023-05-10T11:36:34.471Z,98507.59
2023-05-10T11:39:01.353Z,98508.00
2023-05-10T11:41:31.384Z,98513.25
2023-05-10T11:43:59.271Z,98507.25
2023-05-10T11:46:29.141Z,98509.09
2023-05-10T11:49:05.423Z,98503.69
2023-05-10T11:51:40.246Z,98506.09
2023-05-10T11:54:10.281Z,98503.88
2023-05-10T11:56:39.661Z,98506.00
2023-05-10T11:59:06.634Z,98504.41
2023-05-10T12:01:33.877Z,98506.44
2023-05-10T12:04:02.061Z,98504.19
2023-05-10T12:06:33.388Z,98509.97
2023-05-10T12:09:00.783Z,98511.09
2023-05-10T12:11:29.620Z,98510.78
2023-05-10T12:13:57.511Z,98501.50
2023-05-10T12:16:29.301Z,98514.06
2023-05-10T12:19:01.838Z,98508.56
2023-05-10T12:21:32.271Z,98504.69
2023-05-10T12:24:06.320Z,98514.06
2023-05-10T12:26:33.547Z,98511.72
2023-05-10T12:29:18.065Z,98506.31
2023-05-10T12:31:56.989Z,98512.91
2023-05-10T12:34:31.997Z,98508.19
2023-05-10T12:36:59.414Z,98500.88
2023-05-10T12:39:26.558Z,98501.00
2023-05-10T12:41:54.168Z,98510.78
2023-05-10T12:44:21.087Z,98506.16
2023-05-10T12:46:48.013Z,98504.06
2023-05-10T12:49:14.766Z,98496.56
2023-05-10T12:51:41.732Z,98503.41
2023-05-10T12:54:08.555Z,98505.94
2023-05-10T12:56:35.487Z,98500.91
2023-05-10T12:59:02.262Z,98504.31
2023-05-10T13:01:29.500Z,98495.63
2023-05-10T13:03:56.372Z,98501.66
2023-05-10T13:06:23.271Z,98504.13
2023-05-10T13:08:50.089Z,98501.38
2023-05-10T13:11:20.712Z,98504.03
2023-05-10T13:13:47.482Z,98494.31
2023-05-10T13:16:14.361Z,98488.72
2023-05-10T13:18:41.234Z,98485.56
2023-05-10T13:21:08.492Z,98485.44
2023-05-10T13:23:35.767Z,98487.03
2023-05-10T13:26:04.988Z,98495.69
2023-05-10T13:28:32.029Z,98492.88
2023-05-10T13:31:00.906Z,98493.44
2023-05-10T13:33:27.781Z,98485.09
2023-05-10T13:35:55.784Z,98489.97
2023-05-10T13:38:22.851Z,98485.38
2023-05-10T13:40:53.382Z,98480.75
2023-05-10T13:43:20.608Z,98483.16
2023-05-10T13:45:47.398Z,98486.94
2023-05-10T13:48:14.171Z,98487.22
2023-05-10T13:50:41.166Z,98481.44
2023-05-10T13:53:07.969Z,98485.50
2023-05-10T13:55:34.784Z,98482.13
2023-05-10T13:58:01.537Z,98482.28
2023-05-10T14:00:28.319Z,98483.34
2023-05-10T14:02:56.618Z,98480.38
2023-05-10T14:05:26.204Z,98478.22
2023-05-10T14:07:53.479Z,98481.91
2023-05-10T14:10:22.229Z,98474.13
2023-05-10T14:12:49.175Z,98476.56
2023-05-10T14:15:17.174Z,98465.50
2023-05-10T14:17:44.405Z,98473.94
2023-05-10T14:20:12.422Z,98466.94
2023-05-10T14:22:39.170Z,98468.28
2023-05-10T14:25:06.159Z,98476.31
2023-05-10T14:27:33.293Z,98468.91
2023-05-10T14:30:00.295Z,98460.66
2023-05-10T14:32:28.423Z,98462.16
2023-05-10T14:34:55.334Z,98471.50
2023-05-10T14:37:23.452Z,98460.63
2023-05-10T14:39:50.224Z,98453.41
2023-05-10T14:42:17.013Z,98459.94
2023-05-10T14:44:43.775Z,98460.09
2023-05-10T14:47:12.046Z,98460.09
2023-05-10T14:49:39.132Z,98457.34
2023-05-10T14:52:05.872Z,98455.63
2023-05-10T14:54:34.390Z,98453.59
2023-05-10T14:57:01.557Z,98461.72
2023-05-10T14:59:28.308Z,98454.25
2023-05-10T15:01:55.617Z,98460.41
2023-05-10T15:04:30.373Z,98461.41
2023-05-10T15:07:00.501Z,98459.47
2023-05-10T15:09:28.651Z,98457.06
2023-05-10T15:12:02.663Z,98457.28
2023-05-10T15:14:29.739Z,98453.81
2023-05-10T15:16:57.014Z,98454.00
2023-05-10T15:19:23.961Z,98455.53
2023-05-10T15:21:51.126Z,98451.81
2023-05-10T15:24:17.973Z,98456.69
2023-05-10T15:26:45.099Z,98459.00
2023-05-10T15:29:12.074Z,98454.44
2023-05-10T15:31:40.674Z,98459.50
2023-05-10T15:34:08.067Z,98459.28
2023-05-10T15:36:34.922Z,98460.72
2023-05-10T15:39:01.752Z,98462.88
2023-05-10T15:41:28.993Z,98465.25
2023-05-10T15:43:56.480Z,98462.06
2023-05-10T15:46:23.570Z,98462.53
2023-05-10T15:48:50.709Z,98470.88
2023-05-10T15:51:17.645Z,98464.84
2023-05-10T15:53:56.425Z,98472.47
2023-05-10T15:56:27.570Z,98483.88
2023-05-10T15:58:57.150Z,98482.78
2023-05-10T16:01:24.020Z,98478.63
2023-05-10T16:03:51.031Z,98485.25
2023-05-10T16:06:18.128Z,98478.69
2023-05-10T16:08:47.917Z,98491.47
2023-05-10T16:11:15.070Z,98486.72
2023-05-10T16:13:41.958Z,98490.63
2023-05-10T16:16:09.182Z,98492.66
2023-05-10T16:18:36.389Z,98491.25
2023-05-10T16:21:03.822Z,98489.47
2023-05-10T16:23:30.816Z,98499.53
2023-05-10T16:25:57.691Z,98496.09
2023-05-10T16:28:24.493Z,98498.13
2023-05-10T16:30:51.920Z,98498.25
2023-05-10T16:33:18.754Z,98496.28
2023-05-10T16:35:45.631Z,98509.53
2023-05-10T16:38:12.669Z,98505.66
2023-05-10T16:40:39.789Z,98505.22
2023-05-10T16:43:09.683Z,98501.56
2023-05-10T16:45:36.588Z,98498.84
2023-05-10T16:48:03.950Z,98504.94
2023-05-10T16:50:30.803Z,98498.19
2023-05-10T16:52:57.771Z,98507.22
2023-05-10T16:55:26.379Z,98506.75
2023-05-10T16:57:58.613Z,98503.44
2023-05-10T17:00:28.869Z,98497.78
2023-05-10T17:02:55.863Z,98501.22
2023-05-10T17:05:22.932Z,98506.25
2023-05-10T17:07:50.419Z,98503.06
2023-05-10T17:10:17.393Z,98505.78
2023-05-10T17:12:47.268Z,98504.91
2023-05-10T17:15:16.383Z,98505.72
2023-05-10T17:17:43.449Z,98505.16
2023-05-10T17:20:11.184Z,98497.53
2023-05-10T17:22:37.995Z,98505.44
2023-05-10T17:25:05.556Z,98507.34
2023-05-10T17:27:32.405Z,98513.53
2023-05-10T17:29:59.755Z,98507.50
2023-05-10T17:32:26.935Z,98508.19
2023-05-10T17:34:55.334Z,98502.16
2023-05-10T17:37:23.139Z,98507.06
2023-05-10T17:39:49.981Z,98511.41
2023-05-10T17:42:21.367Z,98510.13
2023-05-10T17:44:51.253Z,98506.16
2023-05-10T17:47:18.631Z,98517.13
2023-05-10T17:49:45.568Z,98511.97
2023-05-10T17:52:15.071Z,98508.91
2023-05-10T17:54:41.803Z,98515.97
2023-05-10T17:57:08.752Z,98516.22
2023-05-10T17:59:35.738Z,98521.69
2023-05-10T18:02:03.453Z,98520.31
2023-05-10T18:04:30.482Z,98518.97
2023-05-10T18:07:01.436Z,98520.56
2023-05-10T18:09:29.145Z,98520.63
2023-05-10T18:11:57.553Z,98524.50
2023-05-10T18:14:39.610Z,98525.97
2023-05-10T18:17:08.636Z,98531.19
2023-05-10T18:19:35.407Z,98533.25
2023-05-10T18:22:02.501Z,98533.38
2023-05-10T18:24:39.277Z,98531.66
2023-05-10T18:27:10.540Z,98532.00
2023-05-10T18:29:37.887Z,98534.28
2023-05-10T18:32:05.729Z,98531.19
2023-05-10T18:34:33.242Z,98527.22
2023-05-10T18:37:07.738Z,98524.94
2023-05-10T18:39:37.356Z,98529.25
2023-05-10T18:42:05.494Z,98530.69
2023-05-10T18:44:32.415Z,98526.13
2023-05-10T18:46:59.323Z,98533.16
2023-05-10T18:49:27.831Z,98525.88
2023-05-10T18:51:54.885Z,98528.47
2023-05-10T18:54:21.810Z,98535.63
2023-05-10T18:56:52.191Z,98538.09
2023-05-10T18:59:19.649Z,98536.31
2023-05-10T19:01:46.909Z,98544.13
2023-05-10T19:04:14.570Z,98542.34
2023-05-10T19:06:41.995Z,98550.59
2023-05-10T19:09:08.947Z,98553.66
2023-05-10T19:11:41.421Z,98553.97
2023-05-10T19:14:08.427Z,98566.09
2023-05-10T19:16:35.837Z,98569.97
2023-05-10T19:19:03.208Z,98567.06
2023-05-10T19:21:33.379Z,98576.13
2023-05-10T19:24:01.490Z,98573.75
2023-05-10T19:26:29.308Z,98569.44
2023-05-10T19:28:57.536Z,98581.53
2023-05-10T19:31:24.668Z,98582.50
2023-05-10T19:33:52.892Z,98585.41
2023-05-10T19:36:20.798Z,98581.09
2023-05-10T19:38:48.801Z,98589.78
2023-05-10T19:41:15.824Z,98584.66
2023-05-10T19:43:47.604Z,98589.19
2023-05-10T19:46:17.074Z,98587.91
2023-05-10T19:48:45.533Z,98586.44
2023-05-10T19:51:15.835Z,98594.63
2023-05-10T19:53:46.461Z,98585.00
2023-05-10T19:56:18.161Z,98591.59
2023-05-10T19:58:48.827Z,98588.22
2023-05-10T20:01:15.732Z,98590.75
2023-05-10T20:03:42.778Z,98583.88
2023-05-10T20:06:10.239Z,98581.63
2023-05-10T20:08:37.200Z,98584.97
2023-05-10T20:11:05.383Z,98589.47
2023-05-10T20:13:33.313Z,98585.63
2023-05-10T20:16:00.675Z,98581.75
2023-05-10T20:18:28.167Z,98593.97
2023-05-10T20:21:05.684Z,98592.91
2023-05-10T20:23:32.687Z,98591.47
2023-05-10T20:25:59.531Z,98595.97
2023-05-10T20:28:27.047Z,98594.06
2023-05-10T20:30:58.279Z,98589.09
2023-05-10T20:33:30.576Z,98584.91
2023-05-10T20:35:57.419Z,98584.13
2023-05-10T20:38:24.306Z,98584.78
2023-05-10T20:40:51.869Z,98585.59
2023-05-10T20:43:18.977Z,98584.78
2023-05-10T20:45:46.485Z,98580.16
2023-05-10T20:48:17.231Z,98579.03
2023-05-10T20:50:44.192Z,98580.94
2023-05-10T20:53:11.108Z,98578.38
2023-05-10T20:55:38.180Z,98572.75
2023-05-10T20:58:05.351Z,98576.31
2023-05-10T21:00:32.255Z,98580.63
2023-05-10T21:02:59.091Z,98581.59
2023-05-10T21:05:26.354Z,98574.22
2023-05-10T21:07:54.141Z,98568.00
2023-05-10T21:10:21.910Z,98569.25
2023-05-10T21:12:49.282Z,98572.31
2023-05-10T21:15:16.186Z,98575.03
2023-05-10T21:17:44.579Z,98575.19
2023-05-10T21:20:12.520Z,98576.81
2023-05-10T21:22:39.297Z,98573.25
2023-05-10T21:25:10.267Z,98569.59
2023-05-10T21:27:36.995Z,98569.25
2023-05-10T21:30:08.121Z,98562.22
2023-05-10T21:32:36.012Z,98576.31
2023-05-10T21:35:04.225Z,98566.72
2023-05-10T21:37:31.923Z,98566.72
2023-05-10T21:39:59.433Z,98567.50
2023-05-10T21:42:26.448Z,98574.88
2023-05-10T21:44:53.761Z,98569.75
2023-05-10T21:47:21.567Z,98566.38
2023-05-10T21:49:49.679Z,98567.34
2023-05-10T21:52:16.483Z,98563.97
2023-05-10T21:54:43.430Z,98564.31
2023-05-10T21:57:10.339Z,98570.06
2023-05-10T21:59:37.165Z,98568.31
2023-05-10T22:02:04.199Z,98567.38
2023-05-10T22:04:31.316Z,98560.16
2023-05-10T22:07:16.938Z,98567.53
2023-05-10T22:09:44.232Z,98560.31
2023-05-10T22:12:15.294Z,98572.16
2023-05-10T22:14:42.354Z,98568.16
2023-05-10T22:17:09.449Z,98562.53
2023-05-10T22:19:36.298Z,98561.09
2023-05-10T22:22:03.199Z,98563.81
2023-05-10T22:24:32.305Z,98568.13
2023-05-10T22:26:59.222Z,98566.19
2023-05-10T22:29:26.050Z,98568.13
2023-05-10T22:31:53.046Z,98563.63
2023-05-10T22:34:19.887Z,98559.19
2023-05-10T22:36:51.011Z,98556.78
2023-05-10T22:39:17.843Z,98558.34
2023-05-10T22:41:44.650Z,98559.00
2023-05-10T22:44:11.527Z,98560.59
2023-05-10T22:46:38.704Z,98558.31
2023-05-10T22:49:05.821Z,98557.53
2023-05-10T22:51:33.204Z,98557.69
2023-05-10T22:54:00.051Z,98552.59
2023-05-10T22:56:27.715Z,98557.53
2023-05-10T22:58:55.446Z,98561.84
2023-05-10T23:01:23.445Z,98560.56
2023-05-10T23:03:50.932Z,98562.78
2023-05-10T23:06:18.508Z,98565.03
2023-05-10T23:08:45.349Z,98564.88
2023-05-10T23:11:14.635Z,98572.69
2023-05-10T23:13:42.221Z,98568.38
2023-05-10T23:16:09.307Z,98565.38
2023-05-10T23:18:36.191Z,98575.91
2023-05-10T23:21:03.602Z,98572.06
2023-05-10T23:23:31.039Z,98575.41
2023-05-10T23:25:57.984Z,98569.63
2023-05-10T23:28:25.848Z,98570.72
2023-05-10T23:30:57.690Z,98574.84
2023-05-10T23:33:29.568Z,98581.88
2023-05-10T23:35:59.839Z,98582.88
2023-05-10T23:38:27.020Z,98582.13
2023-05-10T23:40:54.323Z,98577.66
2023-05-10T23:43:21.745Z,98569.50
2023-05-10T23:45:58.496Z,98578.47
2023-05-10T23:48:25.737Z,98574.44
2023-05-10T23:50:52.673Z,98571.44
2023-05-10T23:53:19.568Z,98579.13
2023-05-10T23:55:46.732Z,98578.66
2023-05-10T23:58:14.280Z,98576.72
